createdAt,value
2018-08-24T00:02:19.476Z,98678.16
2018-08-24T00:04:49.308Z,98680.69
2018-08-24T00:07:18.792Z,98682.19
2018-08-24T00:09:48.262Z,98683.21
2018-08-24T00:12:17.662Z,98673.77
2018-08-24T00:14:47.119Z,98682.03
2018-08-24T00:17:21.871Z,98683.91
2018-08-24T00:19:51.301Z,98684.11
2018-08-24T00:22:20.765Z,98679.75
2018-08-24T00:24:50.181Z,98677.88
2018-08-24T00:27:19.779Z,98671.84
2018-08-24T00:29:49.499Z,98672.20
2018-08-24T00:32:19.063Z,98660.63
2018-08-24T00:34:48.581Z,98670.54
2018-08-24T00:37:18.079Z,98669.03
2018-08-24T00:39:47.570Z,98668.83
2018-08-24T00:42:17.075Z,98659.55
2018-08-24T00:44:46.616Z,98666.45
2018-08-24T00:47:16.042Z,98663.22
2018-08-24T00:49:45.481Z,98658.36
2018-08-24T00:52:14.908Z,98655.02
2018-08-24T00:54:44.425Z,98660.84
2018-08-24T00:57:13.896Z,98658.20
2018-08-24T00:59:43.404Z,98656.38
2018-08-24T01:02:12.849Z,98653.36
2018-08-24T01:04:42.420Z,98654.07
2018-08-24T01:07:13.213Z,98650.06
2018-08-24T01:09:43.201Z,98649.05
2018-08-24T01:12:17.013Z,98646.35
2018-08-24T01:14:47.800Z,98648.88
2018-08-24T01:17:22.405Z,98645.00
2018-08-24T01:19:51.809Z,98639.09
2018-08-24T01:22:21.270Z,98642.30
2018-08-24T01:24:51.547Z,98638.27
2018-08-24T01:27:21.105Z,98640.92
2018-08-24T01:29:50.525Z,98638.88
2018-08-24T01:32:20.002Z,98632.67
2018-08-24T01:34:49.472Z,98628.96
2018-08-24T01:37:18.988Z,98633.52
2018-08-24T01:39:49.132Z,98632.34
2018-08-24T01:42:19.060Z,98629.97
2018-08-24T01:44:49.541Z,98629.97
2018-08-24T01:47:18.990Z,98630.13
2018-08-24T01:49:48.417Z,98627.13
2018-08-24T01:52:17.848Z,98623.79
2018-08-24T01:54:47.885Z,98629.19
2018-08-24T01:57:17.421Z,98629.22
2018-08-24T01:59:46.797Z,98424.34
2018-08-24T02:02:16.215Z,98623.70
2018-08-24T02:04:45.639Z,98623.83
2018-08-24T02:07:15.098Z,98623.83
2018-08-24T02:09:44.946Z,98626.86
2018-08-24T02:12:20.018Z,98630.20
2018-08-24T02:14:49.480Z,98622.30
2018-08-24T02:17:23.937Z,98618.42
2018-08-24T02:19:58.529Z,98616.45
2018-08-24T02:22:27.960Z,98609.22
2018-08-24T02:24:57.437Z,98610.25
2018-08-24T02:27:26.873Z,98610.89
2018-08-24T02:29:57.332Z,98615.44
2018-08-24T02:32:27.005Z,98618.79
2018-08-24T02:34:58.932Z,98616.28
2018-08-24T02:37:29.709Z,98620.16
2018-08-24T02:39:59.132Z,98619.16
2018-08-24T02:42:28.645Z,98617.12
2018-08-24T02:44:58.078Z,98619.66
2018-08-24T02:47:28.629Z,98622.68
2018-08-24T02:49:58.091Z,98621.66
2018-08-24T02:52:27.588Z,98618.31
2018-08-24T02:54:57.044Z,98624.71
2018-08-24T02:57:26.465Z,98621.33
2018-08-24T02:59:55.887Z,98623.88
2018-08-24T03:02:25.475Z,98629.56
2018-08-24T03:04:55.023Z,98623.48
2018-08-24T03:07:24.997Z,98624.67
2018-08-24T03:09:54.508Z,98629.86
2018-08-24T03:12:24.932Z,98630.19
2018-08-24T03:14:54.394Z,98623.42
2018-08-24T03:17:29.113Z,98626.93
2018-08-24T03:19:59.715Z,98629.59
2018-08-24T03:22:29.189Z,98624.38
2018-08-24T03:24:58.626Z,98621.84
2018-08-24T03:27:28.047Z,98616.64
2018-08-24T03:29:57.502Z,98619.16
2018-08-24T03:32:27.125Z,98622.29
2018-08-24T03:34:56.512Z,98616.20
2018-08-24T03:37:26.944Z,98616.52
2018-08-24T03:39:56.339Z,98617.51
2018-08-24T03:42:25.919Z,98615.88
2018-08-24T03:44:55.309Z,98622.97
2018-08-24T03:47:24.788Z,98615.91
2018-08-24T03:49:54.240Z,98612.90
2018-08-24T03:52:24.233Z,98606.81
2018-08-24T03:54:53.708Z,98607.11
2018-08-24T03:57:23.132Z,98607.39
2018-08-24T03:59:53.916Z,98601.20
2018-08-24T04:02:23.859Z,98498.20
2018-08-24T04:04:53.385Z,98609.25
2018-08-24T04:07:22.857Z,98607.44
2018-08-24T04:09:52.258Z,98605.40
2018-08-24T04:12:21.743Z,98612.11
2018-08-24T04:14:51.192Z,98602.09
2018-08-24T04:17:26.213Z,98603.34
2018-08-24T04:19:55.616Z,98605.72
2018-08-24T04:22:25.144Z,98601.32
2018-08-24T04:24:54.577Z,98611.81
2018-08-24T04:27:24.037Z,98610.41
2018-08-24T04:29:53.454Z,98613.16
2018-08-24T04:32:22.935Z,98611.90
2018-08-24T04:34:52.751Z,98610.45
2018-08-24T04:37:22.357Z,98622.86
2018-08-24T04:39:51.756Z,98615.70
2018-08-24T04:42:21.382Z,98612.84
2018-08-24T04:44:50.874Z,98609.83
2018-08-24T04:47:20.289Z,98613.95
2018-08-24T04:49:50.051Z,98614.14
2018-08-24T04:52:19.480Z,98612.31
2018-08-24T04:54:48.962Z,98615.15
2018-08-24T04:57:18.360Z,98615.67
2018-08-24T04:59:47.780Z,98614.66
2018-08-24T05:02:17.238Z,98611.84
2018-08-24T05:04:46.645Z,98611.23
2018-08-24T05:07:16.208Z,98614.48
2018-08-24T05:09:45.615Z,98608.14
2018-08-24T05:12:15.011Z,98603.53
2018-08-24T05:14:44.424Z,98598.50
2018-08-24T05:17:13.869Z,98604.99
2018-08-24T05:19:43.281Z,98602.55
2018-08-24T05:22:12.789Z,98606.23
2018-08-24T05:24:42.263Z,98613.82
2018-08-24T05:27:11.939Z,98605.75
2018-08-24T05:29:41.543Z,98602.59
2018-08-24T05:32:10.981Z,98607.50
2018-08-24T05:34:40.617Z,98608.86
2018-08-24T05:37:10.151Z,98618.97
2018-08-24T05:39:39.597Z,98619.67
2018-08-24T05:42:09.009Z,98628.98
2018-08-24T05:44:38.409Z,98624.81
2018-08-24T05:47:07.870Z,98621.96
2018-08-24T05:49:38.101Z,98625.84
2018-08-24T05:52:07.703Z,98630.88
2018-08-24T05:54:37.108Z,98627.36
2018-08-24T05:57:06.534Z,98632.59
2018-08-24T05:59:36.005Z,98634.26
2018-08-24T06:02:05.799Z,98639.28
2018-08-24T06:04:35.306Z,98638.80
2018-08-24T06:07:05.171Z,98638.45
2018-08-24T06:09:34.645Z,98637.48
2018-08-24T06:12:04.193Z,98635.98
2018-08-24T06:14:33.618Z,98640.19
2018-08-24T06:17:08.752Z,98644.39
2018-08-24T06:19:38.218Z,98637.66
2018-08-24T06:22:07.662Z,98646.89
2018-08-24T06:24:37.199Z,98648.41
2018-08-24T06:27:07.098Z,98659.50
2018-08-24T06:29:36.529Z,98652.12
2018-08-24T06:32:06.071Z,98652.13
2018-08-24T06:34:35.454Z,98645.39
2018-08-24T06:37:05.288Z,98646.05
2018-08-24T06:39:34.920Z,98652.13
2018-08-24T06:42:04.583Z,98650.59
2018-08-24T06:44:34.521Z,98653.09
2018-08-24T06:47:04.077Z,98653.58
2018-08-24T06:49:34.077Z,98653.42
2018-08-24T06:52:03.464Z,98655.45
2018-08-24T06:54:32.896Z,98657.66
2018-08-24T06:57:02.788Z,98658.11
2018-08-24T06:59:32.261Z,98659.94
2018-08-24T07:02:01.839Z,98661.11
2018-08-24T07:04:31.256Z,98661.11
2018-08-24T07:07:00.661Z,98665.25
2018-08-24T07:09:30.122Z,98668.42
2018-08-24T07:11:59.536Z,98674.08
2018-08-24T07:14:29.028Z,98670.75
2018-08-24T07:17:00.185Z,98668.33
2018-08-24T07:19:30.457Z,98675.02
2018-08-24T07:22:00.305Z,98681.34
2018-08-24T07:24:30.498Z,98683.03
2018-08-24T07:26:59.973Z,98686.06
2018-08-24T07:29:30.112Z,98683.80
2018-08-24T07:32:00.267Z,98689.05
2018-08-24T07:34:30.072Z,98687.45
2018-08-24T07:36:59.520Z,98684.20
2018-08-24T07:39:28.926Z,98684.88
2018-08-24T07:41:58.560Z,98680.43
2018-08-24T07:44:28.858Z,98684.76
2018-08-24T07:46:58.245Z,98677.28
2018-08-24T07:49:27.672Z,98673.41
2018-08-24T07:51:57.114Z,98667.27
2018-08-24T07:54:26.534Z,98674.73
2018-08-24T07:56:55.982Z,98676.08
2018-08-24T07:59:25.526Z,98673.69
2018-08-24T08:01:54.958Z,98680.55
2018-08-24T08:04:26.725Z,98676.03
2018-08-24T08:06:56.288Z,98671.95
2018-08-24T08:09:29.988Z,98677.42
2018-08-24T08:12:01.461Z,98671.88
2018-08-24T08:14:31.403Z,98677.42
2018-08-24T08:17:01.910Z,98672.97
2018-08-24T08:19:32.068Z,98669.52
2018-08-24T08:22:01.693Z,98669.22
2018-08-24T08:24:31.146Z,98669.34
2018-08-24T08:27:01.388Z,98674.45
2018-08-24T08:29:36.004Z,98672.44
2018-08-24T08:32:05.425Z,98672.66
2018-08-24T08:34:39.597Z,98677.70
2018-08-24T08:37:09.153Z,98676.94
2018-08-24T08:39:38.837Z,98679.14
2018-08-24T08:42:08.388Z,98678.08
2018-08-24T08:44:38.821Z,98677.64
2018-08-24T08:47:08.339Z,98680.22
2018-08-24T08:49:37.896Z,98676.50
2018-08-24T08:52:07.988Z,98673.01
2018-08-24T08:54:37.448Z,98673.92
2018-08-24T08:57:06.937Z,98672.63
2018-08-24T08:59:36.397Z,98671.72
2018-08-24T09:02:06.135Z,98676.51
2018-08-24T09:04:35.553Z,98675.84
2018-08-24T09:07:05.076Z,98680.88
2018-08-24T09:09:34.645Z,98680.41
2018-08-24T09:12:04.059Z,98675.45
2018-08-24T09:14:33.491Z,98675.50
2018-08-24T09:17:08.171Z,98685.20
2018-08-24T09:19:42.870Z,98673.91
2018-08-24T09:22:20.335Z,98673.67
2018-08-24T09:24:55.466Z,98661.56
2018-08-24T09:27:30.141Z,98663.05
2018-08-24T09:30:02.145Z,98665.80
2018-08-24T09:32:32.966Z,98660.44
2018-08-24T09:35:03.215Z,98661.48
2018-08-24T09:37:43.989Z,98656.34
2018-08-24T09:40:17.346Z,98670.36
2018-08-24T09:42:47.104Z,98668.41
2018-08-24T09:45:16.520Z,98670.48
2018-08-24T09:47:51.264Z,98671.75
2018-08-24T09:50:26.261Z,98674.39
2018-08-24T09:53:00.920Z,98677.48
2018-08-24T09:55:37.799Z,98671.59
2018-08-24T09:58:08.084Z,98689.32
2018-08-24T10:00:42.709Z,98679.66
2018-08-24T10:03:17.440Z,98672.32
2018-08-24T10:05:52.246Z,98676.08
2018-08-24T10:08:26.900Z,98675.50
2018-08-24T10:10:56.356Z,98678.22
2018-08-24T10:13:25.845Z,98685.39
2018-08-24T10:15:56.182Z,98675.40
2018-08-24T10:18:25.794Z,98679.52
2018-08-24T10:20:55.245Z,98677.40
2018-08-24T10:23:25.501Z,98680.13
2018-08-24T10:25:56.801Z,98682.98
2018-08-24T10:28:26.332Z,98684.89
2018-08-24T10:30:56.126Z,98679.89
2018-08-24T10:33:25.731Z,98683.02
2018-08-24T10:35:56.810Z,98572.09
2018-08-24T10:38:27.877Z,98661.93
2018-08-24T10:40:57.442Z,98541.02
2018-08-24T10:43:27.547Z,98662.61
2018-08-24T10:45:57.003Z,98658.30
2018-08-24T10:48:26.956Z,98665.83
2018-08-24T10:50:58.265Z,98659.58
2018-08-24T10:53:27.885Z,98652.88
2018-08-24T10:55:57.671Z,98663.78
2018-08-24T10:58:27.766Z,98654.23
2018-08-24T11:00:57.260Z,98658.72
2018-08-24T11:03:27.649Z,98659.94
2018-08-24T11:05:57.424Z,98646.64
2018-08-24T11:08:27.189Z,98658.27
2018-08-24T11:10:58.007Z,98567.77
2018-08-24T11:13:27.458Z,98655.77
2018-08-24T11:15:58.178Z,98652.03
2018-08-24T11:18:27.817Z,98643.07
2018-08-24T11:20:57.410Z,98649.76
2018-08-24T11:23:30.437Z,98647.28
2018-08-24T11:25:59.903Z,98649.28
2018-08-24T11:28:29.591Z,98652.61
2018-08-24T11:30:59.273Z,98648.88
2018-08-24T11:33:28.748Z,98654.17
2018-08-24T11:35:59.499Z,98655.22
2018-08-24T11:38:32.733Z,98651.84
2018-08-24T11:41:02.547Z,98658.16
2018-08-24T11:43:34.145Z,98643.87
2018-08-24T11:46:03.563Z,98638.70
2018-08-24T11:48:33.015Z,98629.23
2018-08-24T11:51:04.401Z,98632.70
2018-08-24T11:53:33.853Z,98637.83
2018-08-24T11:56:04.125Z,98628.94
2018-08-24T11:58:33.595Z,98616.66
2018-08-24T12:01:03.040Z,98626.80
2018-08-24T12:03:32.439Z,98619.75
2018-08-24T12:06:02.750Z,98616.06
2018-08-24T12:08:32.854Z,98619.36
2018-08-24T12:11:02.648Z,98609.20
2018-08-24T12:13:32.853Z,98609.70
2018-08-24T12:16:06.780Z,98611.03
2018-08-24T12:18:36.393Z,98603.29
2018-08-24T12:21:07.697Z,98601.76
2018-08-24T12:23:37.300Z,98605.19
2018-08-24T12:26:07.142Z,98584.01
2018-08-24T12:28:36.904Z,98575.94
2018-08-24T12:31:06.479Z,98572.69
2018-08-24T12:33:36.041Z,98566.87
2018-08-24T12:36:11.445Z,98566.00
2018-08-24T12:38:40.999Z,98556.80
2018-08-24T12:41:10.999Z,98557.52
2018-08-24T12:43:41.267Z,98554.13
2018-08-24T12:46:11.102Z,98561.30
2018-08-24T12:48:42.678Z,98550.49
2018-08-24T12:51:12.377Z,98550.73
2018-08-24T12:53:42.349Z,98563.85
2018-08-24T12:56:17.084Z,98553.79
2018-08-24T12:58:47.876Z,98549.23
2018-08-24T13:01:18.673Z,98538.45
2018-08-24T13:03:49.957Z,98545.09
2018-08-24T13:06:19.792Z,98538.68
2018-08-24T13:08:49.875Z,98538.89
2018-08-24T13:11:19.360Z,98537.55
2018-08-24T13:13:48.835Z,98538.13
2018-08-24T13:16:18.283Z,98540.07
2018-08-24T13:18:47.789Z,98536.44
2018-08-24T13:21:17.243Z,98456.09
2018-08-24T13:23:47.319Z,98539.20
2018-08-24T13:26:20.096Z,98534.99
2018-08-24T13:28:50.301Z,98533.44
2018-08-24T13:31:20.387Z,98513.30
2018-08-24T13:33:49.998Z,98522.29
2018-08-24T13:36:19.526Z,98524.34
2018-08-24T13:38:49.163Z,98529.33
2018-08-24T13:41:18.772Z,98523.22
2018-08-24T13:43:48.281Z,98522.76
2018-08-24T13:46:20.596Z,98524.20
2018-08-24T13:48:52.421Z,98521.55
2018-08-24T13:51:21.910Z,98518.04
2018-08-24T13:53:51.380Z,98520.16
2018-08-24T13:56:20.789Z,98519.78
2018-08-24T13:58:50.857Z,98512.84
2018-08-24T14:01:20.370Z,98512.39
2018-08-24T14:03:49.963Z,98505.45
2018-08-24T14:06:19.368Z,98507.94
2018-08-24T14:08:49.524Z,98504.23
2018-08-24T14:11:20.016Z,98498.36
2018-08-24T14:13:50.370Z,98497.89
2018-08-24T14:16:19.870Z,98496.46
2018-08-24T14:18:49.412Z,98493.03
2018-08-24T14:21:19.649Z,98491.95
2018-08-24T14:23:49.109Z,98488.08
2018-08-24T14:26:19.072Z,98496.36
2018-08-24T14:28:48.472Z,98488.89
2018-08-24T14:31:17.957Z,98146.43
2018-08-24T14:33:48.007Z,98492.31
2018-08-24T14:36:17.449Z,98498.27
2018-08-24T14:38:47.553Z,98498.75
2018-08-24T14:41:17.667Z,98500.55
2018-08-24T14:43:47.826Z,98492.34
2018-08-24T14:46:17.953Z,98496.95
2018-08-24T14:48:48.258Z,98500.56
2018-08-24T14:51:18.630Z,98504.80
2018-08-24T14:53:48.259Z,98506.28
2018-08-24T14:56:17.851Z,98508.71
2018-08-24T14:58:47.308Z,98510.91
2018-08-24T15:01:16.837Z,98510.38
2018-08-24T15:03:46.371Z,98517.73
2018-08-24T15:06:15.768Z,98511.19
2018-08-24T15:08:45.873Z,98516.63
2018-08-24T15:11:15.302Z,98509.14
2018-08-24T15:13:45.332Z,98514.90
2018-08-24T15:16:14.742Z,98508.82
2018-08-24T15:18:44.392Z,98516.11
2018-08-24T15:21:13.810Z,98506.30
2018-08-24T15:23:43.360Z,98507.90
2018-08-24T15:26:14.573Z,98506.69
2018-08-24T15:28:44.146Z,98503.91
2018-08-24T15:31:14.230Z,98508.78
2018-08-24T15:33:43.849Z,98488.18
2018-08-24T15:36:13.297Z,98489.81
2018-08-24T15:38:43.282Z,98493.30
2018-08-24T15:41:12.674Z,98491.66
2018-08-24T15:43:45.084Z,98485.80
2018-08-24T15:46:14.528Z,98480.09
2018-08-24T15:48:45.040Z,98340.03
2018-08-24T15:51:14.505Z,98481.47
2018-08-24T15:53:45.336Z,98470.14
2018-08-24T15:56:15.946Z,98468.47
2018-08-24T15:58:45.390Z,98463.25
2018-08-24T16:01:15.588Z,98461.72
2018-08-24T16:03:45.067Z,98455.97
2018-08-24T16:06:14.992Z,98452.03
2018-08-24T16:08:44.992Z,98456.29
2018-08-24T16:11:15.775Z,98455.47
2018-08-24T16:13:46.329Z,98442.27
2018-08-24T16:16:15.768Z,98443.09
2018-08-24T16:18:45.189Z,98449.33
2018-08-24T16:21:15.029Z,98446.81
2018-08-24T16:23:44.500Z,98448.34
2018-08-24T16:26:28.474Z,98465.34
2018-08-24T16:28:57.904Z,98489.67
2018-08-24T16:31:27.563Z,98476.91
2018-08-24T16:33:57.543Z,98480.09
2018-08-24T16:36:26.981Z,98498.00
2018-08-24T16:38:56.451Z,98508.52
2018-08-24T16:41:26.033Z,98511.59
2018-08-24T16:43:55.463Z,98520.09
2018-08-24T16:46:24.876Z,98518.45
2018-08-24T16:48:54.380Z,98525.96
2018-08-24T16:51:24.100Z,98536.23
2018-08-24T16:53:54.125Z,98556.52
2018-08-24T16:56:23.592Z,98570.07
2018-08-24T16:58:53.028Z,98576.07
2018-08-24T17:01:22.604Z,98587.13
2018-08-24T17:03:52.414Z,98578.19
2018-08-24T17:06:22.267Z,98588.02
2018-08-24T17:08:52.543Z,98594.05
2018-08-24T17:11:21.986Z,98599.06
2018-08-24T17:13:51.364Z,98597.58
2018-08-24T17:16:35.819Z,98584.95
2018-08-24T17:19:05.304Z,98588.38
2018-08-24T17:21:34.816Z,98599.48
2018-08-24T17:24:04.344Z,98604.42
2018-08-24T17:26:34.796Z,98603.12
2018-08-24T17:29:04.414Z,98602.10
2018-08-24T17:31:33.952Z,98567.33
2018-08-24T17:34:03.453Z,98592.61
2018-08-24T17:36:32.930Z,98595.03
2018-08-24T17:39:03.268Z,98595.42
2018-08-24T17:41:33.109Z,98598.25
2018-08-24T17:44:02.658Z,98591.62
2018-08-24T17:46:32.940Z,98607.80
2018-08-24T17:49:02.670Z,98618.62
2018-08-24T17:51:32.249Z,98625.16
2018-08-24T17:54:01.876Z,98626.77
2018-08-24T17:56:31.379Z,98622.48
2018-08-24T17:59:00.799Z,98623.11
2018-08-24T18:04:14.137Z,98624.50
2018-08-24T18:06:44.122Z,98626.39
2018-08-24T18:09:14.086Z,98631.26
2018-08-24T18:11:43.501Z,98632.17
2018-08-24T18:14:13.043Z,98633.78
2018-08-24T18:16:42.665Z,98642.91
2018-08-24T18:19:13.005Z,98637.15
2018-08-24T18:21:42.820Z,98639.82
2018-08-24T18:24:12.322Z,98630.98
2018-08-24T18:26:41.553Z,98629.13
2018-08-24T18:29:11.686Z,98630.19
2018-08-24T18:31:47.877Z,98628.37
2018-08-24T18:34:17.481Z,98632.59
2018-08-24T18:36:47.598Z,98630.27
2018-08-24T18:39:17.286Z,98629.55
2018-08-24T18:41:46.729Z,98625.39
2018-08-24T18:44:16.278Z,98622.31
2018-08-24T18:46:45.711Z,98619.78
2018-08-24T18:49:15.252Z,98617.61
2018-08-24T18:51:45.546Z,98616.68
2018-08-24T18:54:14.973Z,98619.16
2018-08-24T18:56:45.555Z,98621.31
2018-08-24T18:59:15.188Z,98617.68
2018-08-24T19:01:44.620Z,98622.11
2018-08-24T19:04:14.093Z,98626.46
2018-08-24T19:06:43.549Z,98629.34
2018-08-24T19:09:12.965Z,98629.71
2018-08-24T19:11:47.655Z,98634.41
2018-08-24T19:14:17.157Z,98626.46
2018-08-24T19:16:46.686Z,98432.94
2018-08-24T19:19:21.374Z,98637.15
2018-08-24T19:21:51.750Z,98626.76
2018-08-24T19:24:21.241Z,98636.45
2018-08-24T19:26:50.815Z,98628.71
2018-08-24T19:29:25.410Z,98626.20
2018-08-24T19:31:55.065Z,98631.77
2018-08-24T19:34:24.752Z,98620.42
2018-08-24T19:36:54.150Z,98627.08
2018-08-24T19:39:23.609Z,98629.69
2018-08-24T19:41:58.175Z,98596.80
2018-08-24T19:44:27.660Z,98640.20
2018-08-24T19:46:57.021Z,98631.04
2018-08-24T19:49:26.528Z,98636.80
2018-08-24T19:51:56.026Z,98640.62
2018-08-24T19:54:25.799Z,98638.36
2018-08-24T19:57:00.693Z,98641.30
2018-08-24T19:59:30.832Z,98640.66
2018-08-24T20:02:01.142Z,98646.99
2018-08-24T20:04:31.112Z,98638.60
2018-08-24T20:07:06.292Z,98637.64
2018-08-24T20:09:41.035Z,98632.02
2018-08-24T20:12:10.476Z,98635.81
2018-08-24T20:14:45.145Z,98625.42
2018-08-24T20:17:19.734Z,98620.14
2018-08-24T20:19:49.183Z,98619.72
2018-08-24T20:22:18.778Z,98615.73
2018-08-24T20:24:48.266Z,98614.67
2018-08-24T20:27:17.749Z,98618.39
2018-08-24T20:29:47.219Z,98618.69
2018-08-24T20:32:16.709Z,98620.16
2018-08-24T20:34:49.337Z,98620.94
2018-08-24T20:37:19.012Z,98629.99
2018-08-24T20:39:53.692Z,98623.61
2018-08-24T20:42:23.240Z,98623.45
2018-08-24T20:44:52.697Z,98633.92
2018-08-24T20:47:22.161Z,98637.22
2018-08-24T20:49:52.489Z,98637.50
2018-08-24T20:52:21.971Z,98635.89
2018-08-24T20:54:51.432Z,98634.59
2018-08-24T20:57:21.825Z,98633.09
2018-08-24T20:59:51.334Z,98635.59
2018-08-24T21:02:20.757Z,98638.46
2018-08-24T21:04:50.248Z,98636.13
2018-08-24T21:07:20.152Z,98629.69
2018-08-24T21:09:49.590Z,98634.11
2018-08-24T21:12:19.696Z,98633.38
2018-08-24T21:14:49.567Z,98632.33
2018-08-24T21:17:19.115Z,98633.53
2018-08-24T21:19:48.646Z,98623.38
2018-08-24T21:22:19.415Z,98630.20
2018-08-24T21:24:49.000Z,98624.75
2018-08-24T21:27:18.812Z,98622.83
2018-08-24T21:29:48.342Z,98618.75
2018-08-24T21:32:18.552Z,98585.64
2018-08-24T21:34:48.057Z,98611.79
2018-08-24T21:37:18.571Z,98611.99
2018-08-24T21:39:50.367Z,98607.70
2018-08-24T21:42:20.397Z,98599.83
2018-08-24T21:44:49.903Z,98604.11
2018-08-24T21:47:19.439Z,98598.83
2018-08-24T21:49:50.302Z,98600.98
2018-08-24T21:52:20.095Z,98593.92
2018-08-24T21:54:49.509Z,98595.16
2018-08-24T21:57:19.126Z,98595.46
2018-08-24T21:59:48.620Z,98597.34
2018-08-24T22:02:19.079Z,98597.83
2018-08-24T22:04:49.054Z,98592.99
2018-08-24T22:07:19.306Z,98589.19
2018-08-24T22:09:51.093Z,98595.88
2018-08-24T22:12:21.361Z,98600.30
2018-08-24T22:14:51.198Z,98595.54
2018-08-24T22:17:20.600Z,98604.01
2018-08-24T22:19:50.202Z,98597.67
2018-08-24T22:22:19.909Z,98598.48
2018-08-24T22:24:49.444Z,98598.70
2018-08-24T22:27:18.931Z,98602.60
2018-08-24T22:29:48.558Z,98600.82
2018-08-24T22:32:18.212Z,98602.02
2018-08-24T22:34:47.647Z,98568.02
2018-08-24T22:37:17.205Z,98599.34
2018-08-24T22:39:49.235Z,98590.67
2018-08-24T22:42:18.654Z,98577.95
2018-08-24T22:44:48.164Z,98574.83
2018-08-24T22:47:17.637Z,98570.59
2018-08-24T22:49:47.068Z,98574.53
2018-08-24T22:52:17.486Z,98577.48
2018-08-24T22:54:47.025Z,98570.25
2018-08-24T22:57:16.607Z,98564.76
2018-08-24T22:59:46.136Z,98575.52
2018-08-24T23:02:15.580Z,98568.84
2018-08-24T23:04:45.100Z,98572.54
2018-08-24T23:07:14.604Z,98576.52
2018-08-24T23:09:44.031Z,98573.91
2018-08-24T23:12:13.770Z,98577.92
2018-08-24T23:14:43.213Z,98574.36
2018-08-24T23:17:13.494Z,98579.16
2018-08-24T23:19:43.031Z,98574.94
2018-08-24T23:22:12.544Z,98576.48
2018-08-24T23:24:41.971Z,98573.05
2018-08-24T23:27:11.440Z,98575.79
2018-08-24T23:29:40.894Z,98574.80
2018-08-24T23:32:10.323Z,98568.73
2018-08-24T23:34:39.809Z,98426.46
2018-08-24T23:37:10.708Z,98568.80
2018-08-24T23:39:40.204Z,98572.95
2018-08-24T23:42:09.845Z,98572.53
2018-08-24T23:44:39.349Z,98567.63
2018-08-24T23:47:09.541Z,98567.90
2018-08-24T23:49:38.956Z,98568.61
2018-08-24T23:52:09.157Z,98579.16
2018-08-24T23:54:38.654Z,98570.73
2018-08-24T23:57:08.170Z,98567.78
2018-08-24T23:59:37.566Z,98565.52
